Terminal Aerodrome Forecast
Issued by NWS

Home | Current Version | Previous Version | Text Only | Print | Product List | Glossary On
Versions: 1 2 3 4 5 6 7 8 9 10 11 12 13 14 15 16 17 18 19 20 21
000
FTUS43 KDLH 271200 AAA
TAFHIB
TAF AMD
KHIB 271201Z 2712/2812 34009KT P6SM -RA SCT014 OVC045
      TEMPO 2712/2716 4SM -RA OVC014
     FM271600 35010G18KT P6SM VCSH OVC030
     FM272000 01010G18KT P6SM VCSH SCT025 BKN035
     FM280000 36008KT P6SM SKC=

USA.gov is the U.S. government's official web portal to all federal, state and local government web resources and services.